Fantasia — ICJY — position and weather

sailwx.info

Track history (hours):
 
Tides and Currents Weather Stations Pressure Air Temp Water Temp Dewpoint Dewpoint Depression Visibility Wind Speed Wind Dir Waves Ship Positions

Fantasia

Last reported at 2017-Sep-20 14:41 UTC. Time now 2017-Sep-26 16:49 UTC.
Position N 24°38' W 016°25'.

Length 183 m; draft 11.1 m.

Type: Tanker. MMSI: 247279600.

Date/timePositionNaut miles runAvg speedWind from/ knotsBaromVisibWave heightAir tempDewpointWater temp
2017-Sep-20 14:41N 24°38' W 016°25'811.4
2017-Sep-20 14:00N 24°45' W 016°22'510.8
2017-Sep-20 13:29N 24°50' W 016°20'711.2
2017-Sep-20 12:51N 24°57' W 016°18'1810.8
2017-Sep-20 11:11N 25°14' W 016°10'3610.9
2017-Sep-20 07:54N 25°48' W 015°57'510.7
2017-Sep-20 07:26N 25°52' W 015°56'510.7
2017-Sep-20 06:58N 25°57' W 015°54'710.8
2017-Sep-20 06:20N 26°04' W 015°52'410.6
2017-Sep-20 06:00N 26°07' W 015°50'610.7
2017-Sep-20 05:25N 26°13' W 015°48'710.9
2017-Sep-20 04:48N 26°19' W 015°45'510.1
2017-Sep-20 04:21N 26°23' W 015°43'4910.1
2017-Sep-19 23:29N 27°09' W 015°24'510.6
2017-Sep-19 22:59N 27°14' W 015°22'611.0
2017-Sep-19 22:28N 27°20' W 015°20'1110.7
2017-Sep-19 21:25N 27°30' W 015°15'712.0
2017-Sep-19 20:51N 27°37' W 015°13'411.5
2017-Sep-19 20:30N 27°40' W 015°11'611.3
2017-Sep-19 20:00N 27°46' W 015°09'510.9
2017-Sep-19 19:30N 27°51' W 015°07'611.1
2017-Sep-19 19:00N 27°56' W 015°05'510.8
2017-Sep-19 18:30N 28°01' W 015°03'511.0
2017-Sep-19 18:00N 28°06' W 015°01'611.1
2017-Sep-19 17:30N 28°11' W 014°58'611.3
2017-Sep-19 17:00N 28°17' W 014°56'611.3
2017-Sep-19 16:30N 28°22' W 014°54'510.9
2017-Sep-19 16:00N 28°27' W 014°51'610.9
2017-Sep-19 15:30N 28°32' W 014°49'612.2
2017-Sep-19 15:00N 28°38' W 014°46'611.1
2017-Sep-19 14:30N 28°43' W 014°43'510.8
2017-Sep-19 14:00N 28°48' W 014°41'510.6
2017-Sep-19 13:30N 28°52' W 014°39'611.3
2017-Sep-19 13:00N 28°58' W 014°36'510.8
2017-Sep-19 12:30N 29°03' W 014°34'510.7
2017-Sep-19 12:00N 29°08' W 014°31'510.6
2017-Sep-19 11:30N 29°12' W 014°29'510.9
2017-Sep-19 11:00N 29°17' W 014°26'611.4
2017-Sep-19 10:30N 29°23' W 014°24'511.0
2017-Sep-19 10:00N 29°28' W 014°21'510.8
2017-Sep-19 09:30N 29°33' W 014°19'611.4
2017-Sep-19 09:00N 29°38' W 014°16'510.7
2017-Sep-19 08:30N 29°43' W 014°13'510.7
2017-Sep-19 08:00N 29°48' W 014°11'610.9
2017-Sep-19 07:28N 29°53' W 014°08'511.1
2017-Sep-19 07:00N 29°58' W 014°06'612.0
2017-Sep-19 06:28N 30°03' W 014°03'612.4
2017-Sep-19 06:00N 30°09' W 014°00'612.4
2017-Sep-19 05:30N 30°14' W 013°57'612.5
2017-Sep-19 05:00N 30°20' W 013°54'612.2
2017-Sep-19 04:30N 30°26' W 013°51'612.2
2017-Sep-19 04:00N 30°31' W 013°49'611.8
2017-Sep-19 03:30N 30°37' W 013°46'811.9
2017-Sep-19 02:50N 30°44' W 013°42'411.8
2017-Sep-19 02:30N 30°47' W 013°40'611.9
2017-Sep-19 02:00N 30°53' W 013°37'611.8
2017-Sep-19 01:30N 30°58' W 013°35'611.9
2017-Sep-19 01:00N 31°04' W 013°32'611.9
2017-Sep-19 00:30N 31°09' W 013°29'612.1
2017-Sep-18 23:58N 31°15' W 013°26'811.7
2017-Sep-18 23:19N 31°22' W 013°22'411.8
2017-Sep-18 22:58N 31°26' W 013°20'1012.0
2017-Sep-18 22:09N 31°35' W 013°16'310.9
2017-Sep-18 21:55N 31°37' W 013°15'510.6
2017-Sep-18 21:29N 31°41' W 013°12'510.5
2017-Sep-18 21:00N 31°46' W 013°10'610.4
2017-Sep-18 20:27N 31°51' W 013°07'611.3
2017-Sep-18 19:57N 31°56' W 013°05'510.2
2017-Sep-18 19:30N 32°01' W 013°02'1611.0
2017-Sep-18 18:05N 32°15' W 012°55'113.4
2017-Sep-18 17:59N 32°16' W 012°54'711.5
2017-Sep-18 17:22N 32°23' W 012°51'511.3
2017-Sep-18 16:55N 32°28' W 012°49'811.1
2017-Sep-18 16:11N 32°35' W 012°45'212.9
2017-Sep-18 16:00N 32°37' W 012°43'711.0
2017-Sep-18 15:23N 32°43' W 012°40'1711.1
2017-Sep-18 13:50N 32°59' W 012°32'2911.0
2017-Sep-18 11:12N 33°25' W 012°18'4312.3
2017-Sep-18 07:46N 34°04' W 011°57'3411.7
2017-Sep-18 04:50N 34°36' W 011°41'21811.8
2017-Sep-17 10:21N 37°56' W 009°51'411.6
2017-Sep-17 10:00N 37°59' W 009°49'611.7
2017-Sep-17 09:30N 38°05' W 009°46'611.5
2017-Sep-17 09:00N 38°10' W 009°43'611.5
2017-Sep-17 08:30N 38°15' W 009°40'611.7
2017-Sep-17 08:00N 38°20' W 009°37'611.6
2017-Sep-17 07:30N 38°26' W 009°34'611.5
2017-Sep-17 07:00N 38°31' W 009°31'611.8
2017-Sep-17 06:30N 38°36' W 009°28'4 7.6
2017-Sep-17 06:00N 38°40' W 009°25'0 0.4
2017-Sep-17 05:30N 38°40' W 009°26'2 3.2
2017-Sep-17 05:00N 38°39' W 009°27'510.2
2017-Sep-17 04:30N 38°37' W 009°33'510.9
2017-Sep-17 04:00N 38°36' W 009°40'611.0
2017-Sep-17 03:30N 38°35' W 009°47'611.4
2017-Sep-17 03:00N 38°34' W 009°54'611.3
2017-Sep-17 02:30N 38°32' W 010°01'611.1
2017-Sep-17 02:00N 38°34' W 010°08'511.0
2017-Sep-17 01:30N 38°39' W 010°11'612.1
2017-Sep-17 01:00N 38°45' W 010°12'812.6
2017-Sep-17 00:24N 38°52' W 010°12'512.2
2017-Sep-17 00:00N 38°57' W 010°12'612.3
2017-Sep-16 23:30N 39°03' W 010°12'612.4
2017-Sep-16 23:00N 39°10' W 010°12'612.1
2017-Sep-16 22:30N 39°16' W 010°12'  
2017-Sep-14 10:44N 49°36' W 003°57'2 9.9
2017-Sep-14 10:30N 49°37' W 003°54'510.1
2017-Sep-14 10:00N 49°39' W 003°47'510.6
2017-Sep-14 09:30N 49°42' W 003°40'511.0
2017-Sep-14 09:00N 49°45' W 003°33'611.6
2017-Sep-14 08:30N 49°48' W 003°25'612.1
2017-Sep-14 08:00N 49°51' W 003°17'612.7
2017-Sep-14 07:30N 49°54' W 003°09'713.0
2017-Sep-14 07:00N 49°57' W 002°60'713.0
2017-Sep-14 06:30N 49°60' W 002°51'713.2
2017-Sep-14 06:00N 50°02' W 002°41'2212.6
2017-Sep-14 04:15N 50°08' W 002°08'311.3
2017-Sep-14 04:00N 50°08' W 002°03'710.7
2017-Sep-14 03:19N 50°10' W 001°52'310.2
2017-Sep-14 03:00N 50°11' W 001°48'5 9.8
2017-Sep-14 02:31N 50°13' W 001°40'5 9.6
2017-Sep-14 02:01N 50°14' W 001°33'5 9.3
2017-Sep-14 01:30N 50°15' W 001°26'5 9.2
2017-Sep-14 01:00N 50°17' W 001°19'5 9.3
2017-Sep-14 00:30N 50°18' W 001°12'6 9.5
2017-Sep-13 23:53N 50°20' W 001°04'910.3
2017-Sep-13 23:00N 50°22' W 000°50'711.4
2017-Sep-13 22:22N 50°24' W 000°39'712.1
2017-Sep-13 21:46N 50°26' W 000°28'312.6
2017-Sep-13 21:30N 50°27' W 000°23'612.6
2017-Sep-13 21:00N 50°29' W 000°13'612.7
2017-Sep-13 20:30N 50°31' W 000°04'612.6
2017-Sep-13 20:00N 50°32' E 000°06'612.5
2017-Sep-13 19:30N 50°34' E 000°15'612.1
2017-Sep-13 19:00N 50°36' E 000°24'611.7
2017-Sep-13 18:30N 50°37' E 000°33'611.2
2017-Sep-13 18:00N 50°41' E 000°40'611.1
2017-Sep-13 17:30N 50°44' E 000°48'510.7
2017-Sep-13 17:00N 50°47' E 000°54'510.4
2017-Sep-13 16:30N 50°50' E 001°01'510.1
2017-Sep-13 16:00N 50°53' E 001°07'510.4
2017-Sep-13 15:30N 50°57' E 001°13'510.1
2017-Sep-13 15:00N 51°00' E 001°19'510.3
2017-Sep-13 14:30N 51°03' E 001°26'611.1
2017-Sep-13 14:00N 51°07' E 001°33'612.0
2017-Sep-13 13:30N 51°10' E 001°40'612.9
2017-Sep-13 13:00N 51°15' E 001°48'713.5
2017-Sep-13 12:30N 51°20' E 001°54'612.3
2017-Sep-13 12:00N 51°25' E 002°01'611.6
2017-Sep-13 11:30N 51°22' E 002°10'611.6
2017-Sep-13 11:00N 51°21' E 002°19'611.8
2017-Sep-13 10:30N 51°22' E 002°28'611.3
2017-Sep-13 10:00N 51°23' E 002°37'510.6
2017-Sep-13 09:30N 51°23' E 002°45'5 9.7
2017-Sep-13 09:00N 51°23' E 002°53'611.2
2017-Sep-13 08:30N 51°24' E 003°02'611.9
2017-Sep-13 08:00N 51°24' E 003°11'612.4
2017-Sep-13 07:30N 51°25' E 003°21'612.4
2017-Sep-13 07:00N 51°25' E 003°31'3 6.9
2017-Sep-13 06:30N 51°26' E 003°36'4 8.2
2017-Sep-13 06:00N 51°25' E 003°43'510.1
2017-Sep-13 05:30N 51°21' E 003°48'4 8.7
2017-Sep-13 05:00N 51°22' E 003°55'4 8.1
2017-Sep-13 04:30N 51°26' E 003°58'3 6.5
2017-Sep-13 04:00N 51°24' E 004°02'4 8.6
2017-Sep-13 03:30N 51°23' E 004°09'3 6.5
2017-Sep-13 03:00N 51°21' E 004°14'2 4.4
2017-Sep-13 02:30N 51°21' E 004°17'0 0.0
2017-Sep-13 02:01N 51°21' E 004°17'0 0.0
2017-Sep-13 01:31N 51°21' E 004°17'0 0.5
2017-Sep-13 01:00N 51°21' E 004°18'3 5.9
2017-Sep-13 00:30N 51°18' E 004°20'2 2.0
2017-Sep-12 23:35N 51°16' E 004°21'0 0.1
2017-Sep-12 23:29N 51°16' E 004°21'0 0.0
2017-Sep-12 22:59N 51°16' E 004°21'0 0.0
2017-Sep-12 22:26N 51°16' E 004°21'0 0.0
2017-Sep-12 21:59N 51°16' E 004°21'0 0.0
2017-Sep-12 21:23N 51°16' E 004°21'0 0.0
2017-Sep-12 20:56N 51°16' E 004°21'0 0.0
2017-Sep-12 20:26N 51°16' E 004°21'0 0.0
2017-Sep-12 19:59N 51°16' E 004°21'0 0.0
2017-Sep-12 19:26N 51°16' E 004°21'0 0.0
2017-Sep-12 18:59N 51°16' E 004°21'0 0.0
2017-Sep-12 18:29N 51°16' E 004°21'0 0.0
2017-Sep-12 17:59N 51°16' E 004°21'0 0.0
2017-Sep-12 17:29N 51°16' E 004°21'0 0.0
2017-Sep-12 16:56N 51°16' E 004°21'0 0.0
2017-Sep-12 16:23N 51°16' E 004°21'0 0.0
2017-Sep-12 15:59N 51°16' E 004°21'0 0.0
2017-Sep-12 15:26N 51°16' E 004°21'0 0.0
2017-Sep-12 14:59N 51°16' E 004°21'0 0.0
2017-Sep-12 14:26N 51°16' E 004°21'0 0.0
2017-Sep-12 13:56N 51°16' E 004°21'0 0.0
2017-Sep-12 13:29N 51°16' E 004°21'0 0.0
2017-Sep-12 12:59N 51°16' E 004°21'0 0.0
2017-Sep-12 12:29N 51°16' E 004°21'0 0.0
2017-Sep-12 11:59N 51°16' E 004°21'0 0.0
2017-Sep-12 11:26N 51°16' E 004°21'0 0.0
2017-Sep-12 10:56N 51°16' E 004°21'0 0.0
2017-Sep-12 10:26N 51°16' E 004°21'0 0.0
2017-Sep-12 09:56N 51°16' E 004°21'0 0.0
2017-Sep-12 09:26N 51°16' E 004°21'0 0.0
2017-Sep-12 08:56N 51°16' E 004°21'0 0.0
2017-Sep-12 08:26N 51°16' E 004°21'0 0.0
2017-Sep-12 07:59N 51°16' E 004°21'0 0.0
2017-Sep-12 07:29N 51°16' E 004°21'0 0.0
2017-Sep-12 06:53N 51°16' E 004°21'0 0.0
2017-Sep-12 06:23N 51°16' E 004°21'0 0.0
2017-Sep-12 05:56N 51°16' E 004°21'0 0.0
2017-Sep-12 05:29N 51°16' E 004°21'0 0.0
2017-Sep-12 04:44N 51°16' E 004°21'0 0.0
2017-Sep-12 04:29N 51°16' E 004°21'0 0.0
2017-Sep-12 03:59N 51°16' E 004°21'0 0.0
2017-Sep-12 03:26N 51°16' E 004°21'0 0.0
2017-Sep-12 02:50N 51°16' E 004°21'0 0.0
2017-Sep-12 02:23N 51°16' E 004°21'0 0.0
2017-Sep-12 01:59N 51°16' E 004°21'0 0.0
2017-Sep-12 01:23N 51°16' E 004°21'0 0.0
2017-Sep-12 00:59N 51°16' E 004°21'0 0.0
2017-Sep-12 00:29N 51°16' E 004°21'0 0.0
2017-Sep-11 23:53N 51°16' E 004°21'0 0.0
2017-Sep-11 23:29N 51°16' E 004°21'0 0.0
2017-Sep-11 22:53N 51°16' E 004°21'0 0.0
2017-Sep-11 22:17N 51°16' E 004°21'0 0.0
2017-Sep-11 21:59N 51°16' E 004°21'0 0.0
2017-Sep-11 21:26N 51°16' E 004°21'0 0.0
2017-Sep-11 20:47N 51°16' E 004°21'0 0.0
2017-Sep-11 20:23N 51°16' E 004°21'0 0.0
2017-Sep-11 19:59N 51°16' E 004°21'0 0.0
2017-Sep-11 19:29N 51°16' E 004°21'0 0.0
2017-Sep-11 18:53N 51°16' E 004°21'0 0.0
2017-Sep-11 18:29N 51°16' E 004°21'0 0.0
2017-Sep-11 17:53N 51°16' E 004°21'0 0.0
2017-Sep-11 17:23N 51°16' E 004°21'0 0.0
2017-Sep-11 16:53N 51°16' E 004°21'0 0.0
2017-Sep-11 16:20N 51°16' E 004°21'0 0.0
2017-Sep-11 15:59N 51°16' E 004°21'0 0.0
2017-Sep-11 15:29N 51°16' E 004°21'0 0.0
2017-Sep-11 14:53N 51°16' E 004°21'0 0.0
2017-Sep-11 14:26N 51°16' E 004°21'0 0.0
2017-Sep-11 13:56N 51°16' E 004°21'0 0.0
2017-Sep-11 13:26N 51°16' E 004°21'0 0.0
2017-Sep-11 12:59N 51°16' E 004°21'0 0.0
2017-Sep-11 12:26N 51°16' E 004°21'0 0.0
2017-Sep-11 11:59N 51°16' E 004°21'0 0.0
2017-Sep-11 11:26N 51°16' E 004°21'0 0.0
2017-Sep-11 10:59N 51°16' E 004°21'0 0.0
2017-Sep-11 10:26N 51°16' E 004°21'0 0.0
2017-Sep-11 09:59N 51°16' E 004°21'0 0.0
2017-Sep-11 09:26N 51°16' E 004°21'0 0.0
2017-Sep-11 08:53N 51°16' E 004°21'0 0.0
2017-Sep-11 08:29N 51°16' E 004°21'0 0.0
2017-Sep-11 07:56N 51°16' E 004°21'0 0.0
2017-Sep-11 07:29N 51°16' E 004°21'0 0.0
2017-Sep-11 06:59N 51°16' E 004°21'0 0.0
2017-Sep-11 06:29N 51°16' E 004°21'0 0.0
2017-Sep-11 05:59N 51°16' E 004°21'0 0.0
2017-Sep-11 05:29N 51°16' E 004°21'0 0.0
2017-Sep-11 04:59N 51°16' E 004°21'0 0.0
2017-Sep-11 04:26N 51°16' E 004°21'0 0.0
2017-Sep-11 03:56N 51°16' E 004°21'0 0.0
2017-Sep-11 03:29N 51°16' E 004°21'0 0.0
2017-Sep-11 02:59N 51°16' E 004°21'0 0.0
2017-Sep-11 02:26N 51°16' E 004°21'0 0.0
2017-Sep-11 01:56N 51°16' E 004°21'0 0.0
2017-Sep-11 01:29N 51°16' E 004°21'0 0.0
2017-Sep-11 00:56N 51°16' E 004°21'0 0.0
2017-Sep-11 00:26N 51°16' E 004°21'0 0.0
2017-Sep-10 23:56N 51°16' E 004°21'0 0.0
2017-Sep-10 23:29N 51°16' E 004°21'0 0.0
2017-Sep-10 22:59N 51°16' E 004°21'0 0.0
2017-Sep-10 22:26N 51°16' E 004°21'0 0.0
2017-Sep-10 21:56N 51°16' E 004°21'0 0.0
2017-Sep-10 21:26N 51°16' E 004°21'0 0.0
2017-Sep-10 20:56N 51°16' E 004°21'0 0.0
2017-Sep-10 20:26N 51°16' E 004°21'0 0.0
2017-Sep-10 19:56N 51°16' E 004°21'0 0.0
2017-Sep-10 19:26N 51°16' E 004°21'0 0.0
2017-Sep-10 18:59N 51°16' E 004°21'0 0.0
2017-Sep-10 18:26N 51°16' E 004°21'0 0.0
2017-Sep-10 17:56N 51°16' E 004°21'0 0.0
2017-Sep-10 17:29N 51°16' E 004°21'0 0.0
2017-Sep-10 16:53N 51°16' E 004°21'0 0.0
2017-Sep-10 16:29N 51°16' E 004°21'0 0.0
2017-Sep-10 15:41N 51°16' E 004°21'0 0.0
2017-Sep-10 15:26N 51°16' E 004°21'0 0.0
2017-Sep-10 14:56N 51°16' E 004°21'  
Track history (hours):
 
Tides and Currents Weather Stations Pressure Air Temp Water Temp Dewpoint Dewpoint Depression Visibility Wind Speed Wind Dir Waves Ship Positions

Fantasia

Last reported at 2017-Sep-20 14:41 UTC. Time now 2017-Sep-26 16:49 UTC.
Position N 24°38' W 016°25'.

Length 183 m; draft 11.1 m.

Type: Tanker. MMSI: 247279600.

Date/timePositionNaut miles runAvg speedWind from/ knotsBaromVisibWave heightAir tempDewpointWater temp
2017-Sep-20 14:41N 24°38' W 016°25'811.4
2017-Sep-20 14:00N 24°45' W 016°22'510.8
2017-Sep-20 13:29N 24°50' W 016°20'711.2
2017-Sep-20 12:51N 24°57' W 016°18'1810.8
2017-Sep-20 11:11N 25°14' W 016°10'3610.9
2017-Sep-20 07:54N 25°48' W 015°57'510.7
2017-Sep-20 07:26N 25°52' W 015°56'510.7
2017-Sep-20 06:58N 25°57' W 015°54'710.8
2017-Sep-20 06:20N 26°04' W 015°52'410.6
2017-Sep-20 06:00N 26°07' W 015°50'610.7
2017-Sep-20 05:25N 26°13' W 015°48'710.9
2017-Sep-20 04:48N 26°19' W 015°45'510.1
2017-Sep-20 04:21N 26°23' W 015°43'4910.1
2017-Sep-19 23:29N 27°09' W 015°24'510.6
2017-Sep-19 22:59N 27°14' W 015°22'611.0
2017-Sep-19 22:28N 27°20' W 015°20'1110.7
2017-Sep-19 21:25N 27°30' W 015°15'712.0
2017-Sep-19 20:51N 27°37' W 015°13'411.5
2017-Sep-19 20:30N 27°40' W 015°11'611.3
2017-Sep-19 20:00N 27°46' W 015°09'510.9
2017-Sep-19 19:30N 27°51' W 015°07'611.1
2017-Sep-19 19:00N 27°56' W 015°05'510.8
2017-Sep-19 18:30N 28°01' W 015°03'511.0
2017-Sep-19 18:00N 28°06' W 015°01'611.1
2017-Sep-19 17:30N 28°11' W 014°58'611.3
2017-Sep-19 17:00N 28°17' W 014°56'611.3
2017-Sep-19 16:30N 28°22' W 014°54'510.9
2017-Sep-19 16:00N 28°27' W 014°51'610.9
2017-Sep-19 15:30N 28°32' W 014°49'612.2
2017-Sep-19 15:00N 28°38' W 014°46'611.1
2017-Sep-19 14:30N 28°43' W 014°43'510.8
2017-Sep-19 14:00N 28°48' W 014°41'510.6
2017-Sep-19 13:30N 28°52' W 014°39'611.3
2017-Sep-19 13:00N 28°58' W 014°36'510.8
2017-Sep-19 12:30N 29°03' W 014°34'510.7
2017-Sep-19 12:00N 29°08' W 014°31'510.6
2017-Sep-19 11:30N 29°12' W 014°29'510.9
2017-Sep-19 11:00N 29°17' W 014°26'611.4
2017-Sep-19 10:30N 29°23' W 014°24'511.0
2017-Sep-19 10:00N 29°28' W 014°21'510.8
2017-Sep-19 09:30N 29°33' W 014°19'611.4
2017-Sep-19 09:00N 29°38' W 014°16'510.7
2017-Sep-19 08:30N 29°43' W 014°13'510.7
2017-Sep-19 08:00N 29°48' W 014°11'610.9
2017-Sep-19 07:28N 29°53' W 014°08'511.1
2017-Sep-19 07:00N 29°58' W 014°06'612.0
2017-Sep-19 06:28N 30°03' W 014°03'612.4
2017-Sep-19 06:00N 30°09' W 014°00'612.4
2017-Sep-19 05:30N 30°14' W 013°57'612.5
2017-Sep-19 05:00N 30°20' W 013°54'612.2
2017-Sep-19 04:30N 30°26' W 013°51'612.2
2017-Sep-19 04:00N 30°31' W 013°49'611.8
2017-Sep-19 03:30N 30°37' W 013°46'811.9
2017-Sep-19 02:50N 30°44' W 013°42'411.8
2017-Sep-19 02:30N 30°47' W 013°40'611.9
2017-Sep-19 02:00N 30°53' W 013°37'611.8
2017-Sep-19 01:30N 30°58' W 013°35'611.9
2017-Sep-19 01:00N 31°04' W 013°32'611.9
2017-Sep-19 00:30N 31°09' W 013°29'612.1
2017-Sep-18 23:58N 31°15' W 013°26'811.7
2017-Sep-18 23:19N 31°22' W 013°22'411.8
2017-Sep-18 22:58N 31°26' W 013°20'1012.0
2017-Sep-18 22:09N 31°35' W 013°16'310.9
2017-Sep-18 21:55N 31°37' W 013°15'510.6
2017-Sep-18 21:29N 31°41' W 013°12'510.5
2017-Sep-18 21:00N 31°46' W 013°10'610.4
2017-Sep-18 20:27N 31°51' W 013°07'611.3
2017-Sep-18 19:57N 31°56' W 013°05'510.2
2017-Sep-18 19:30N 32°01' W 013°02'1611.0
2017-Sep-18 18:05N 32°15' W 012°55'113.4
2017-Sep-18 17:59N 32°16' W 012°54'711.5
2017-Sep-18 17:22N 32°23' W 012°51'511.3
2017-Sep-18 16:55N 32°28' W 012°49'811.1
2017-Sep-18 16:11N 32°35' W 012°45'212.9
2017-Sep-18 16:00N 32°37' W 012°43'711.0
2017-Sep-18 15:23N 32°43' W 012°40'1711.1
2017-Sep-18 13:50N 32°59' W 012°32'2911.0
2017-Sep-18 11:12N 33°25' W 012°18'4312.3
2017-Sep-18 07:46N 34°04' W 011°57'3411.7
2017-Sep-18 04:50N 34°36' W 011°41'21811.8
2017-Sep-17 10:21N 37°56' W 009°51'411.6
2017-Sep-17 10:00N 37°59' W 009°49'611.7
2017-Sep-17 09:30N 38°05' W 009°46'611.5
2017-Sep-17 09:00N 38°10' W 009°43'611.5
2017-Sep-17 08:30N 38°15' W 009°40'611.7
2017-Sep-17 08:00N 38°20' W 009°37'611.6
2017-Sep-17 07:30N 38°26' W 009°34'611.5
2017-Sep-17 07:00N 38°31' W 009°31'611.8
2017-Sep-17 06:30N 38°36' W 009°28'4 7.6
2017-Sep-17 06:00N 38°40' W 009°25'0 0.4
2017-Sep-17 05:30N 38°40' W 009°26'2 3.2
2017-Sep-17 05:00N 38°39' W 009°27'510.2
2017-Sep-17 04:30N 38°37' W 009°33'510.9
2017-Sep-17 04:00N 38°36' W 009°40'611.0
2017-Sep-17 03:30N 38°35' W 009°47'611.4
2017-Sep-17 03:00N 38°34' W 009°54'611.3
2017-Sep-17 02:30N 38°32' W 010°01'611.1
2017-Sep-17 02:00N 38°34' W 010°08'511.0
2017-Sep-17 01:30N 38°39' W 010°11'612.1
2017-Sep-17 01:00N 38°45' W 010°12'812.6
2017-Sep-17 00:24N 38°52' W 010°12'512.2
2017-Sep-17 00:00N 38°57' W 010°12'612.3
2017-Sep-16 23:30N 39°03' W 010°12'612.4
2017-Sep-16 23:00N 39°10' W 010°12'612.1
2017-Sep-16 22:30N 39°16' W 010°12'  
2017-Sep-14 10:44N 49°36' W 003°57'2 9.9
2017-Sep-14 10:30N 49°37' W 003°54'510.1
2017-Sep-14 10:00N 49°39' W 003°47'510.6
2017-Sep-14 09:30N 49°42' W 003°40'511.0
2017-Sep-14 09:00N 49°45' W 003°33'611.6
2017-Sep-14 08:30N 49°48' W 003°25'612.1
2017-Sep-14 08:00N 49°51' W 003°17'612.7
2017-Sep-14 07:30N 49°54' W 003°09'713.0
2017-Sep-14 07:00N 49°57' W 002°60'713.0
2017-Sep-14 06:30N 49°60' W 002°51'713.2
2017-Sep-14 06:00N 50°02' W 002°41'2212.6
2017-Sep-14 04:15N 50°08' W 002°08'311.3
2017-Sep-14 04:00N 50°08' W 002°03'710.7
2017-Sep-14 03:19N 50°10' W 001°52'310.2
2017-Sep-14 03:00N 50°11' W 001°48'5 9.8
2017-Sep-14 02:31N 50°13' W 001°40'5 9.6
2017-Sep-14 02:01N 50°14' W 001°33'5 9.3
2017-Sep-14 01:30N 50°15' W 001°26'5 9.2
2017-Sep-14 01:00N 50°17' W 001°19'5 9.3
2017-Sep-14 00:30N 50°18' W 001°12'6 9.5
2017-Sep-13 23:53N 50°20' W 001°04'910.3
2017-Sep-13 23:00N 50°22' W 000°50'711.4
2017-Sep-13 22:22N 50°24' W 000°39'712.1
2017-Sep-13 21:46N 50°26' W 000°28'312.6
2017-Sep-13 21:30N 50°27' W 000°23'612.6
2017-Sep-13 21:00N 50°29' W 000°13'612.7
2017-Sep-13 20:30N 50°31' W 000°04'612.6
2017-Sep-13 20:00N 50°32' E 000°06'612.5
2017-Sep-13 19:30N 50°34' E 000°15'612.1
2017-Sep-13 19:00N 50°36' E 000°24'611.7
2017-Sep-13 18:30N 50°37' E 000°33'611.2
2017-Sep-13 18:00N 50°41' E 000°40'611.1
2017-Sep-13 17:30N 50°44' E 000°48'510.7
2017-Sep-13 17:00N 50°47' E 000°54'510.4
2017-Sep-13 16:30N 50°50' E 001°01'510.1
2017-Sep-13 16:00N 50°53' E 001°07'510.4
2017-Sep-13 15:30N 50°57' E 001°13'510.1
2017-Sep-13 15:00N 51°00' E 001°19'510.3
2017-Sep-13 14:30N 51°03' E 001°26'611.1
2017-Sep-13 14:00N 51°07' E 001°33'612.0
2017-Sep-13 13:30N 51°10' E 001°40'612.9
2017-Sep-13 13:00N 51°15' E 001°48'713.5
2017-Sep-13 12:30N 51°20' E 001°54'612.3
2017-Sep-13 12:00N 51°25' E 002°01'611.6
2017-Sep-13 11:30N 51°22' E 002°10'611.6
2017-Sep-13 11:00N 51°21' E 002°19'611.8
2017-Sep-13 10:30N 51°22' E 002°28'611.3
2017-Sep-13 10:00N 51°23' E 002°37'510.6
2017-Sep-13 09:30N 51°23' E 002°45'5 9.7
2017-Sep-13 09:00N 51°23' E 002°53'611.2
2017-Sep-13 08:30N 51°24' E 003°02'611.9
2017-Sep-13 08:00N 51°24' E 003°11'612.4
2017-Sep-13 07:30N 51°25' E 003°21'612.4
2017-Sep-13 07:00N 51°25' E 003°31'3 6.9
2017-Sep-13 06:30N 51°26' E 003°36'4 8.2
2017-Sep-13 06:00N 51°25' E 003°43'510.1
2017-Sep-13 05:30N 51°21' E 003°48'4 8.7
2017-Sep-13 05:00N 51°22' E 003°55'4 8.1
2017-Sep-13 04:30N 51°26' E 003°58'3 6.5
2017-Sep-13 04:00N 51°24' E 004°02'4 8.6
2017-Sep-13 03:30N 51°23' E 004°09'3 6.5
2017-Sep-13 03:00N 51°21' E 004°14'2 4.4
2017-Sep-13 02:30N 51°21' E 004°17'0 0.0
2017-Sep-13 02:01N 51°21' E 004°17'0 0.0
2017-Sep-13 01:31N 51°21' E 004°17'0 0.5
2017-Sep-13 01:00N 51°21' E 004°18'3 5.9
2017-Sep-13 00:30N 51°18' E 004°20'2 2.0
2017-Sep-12 23:35N 51°16' E 004°21'0 0.1
2017-Sep-12 23:29N 51°16' E 004°21'0 0.0
2017-Sep-12 22:59N 51°16' E 004°21'0 0.0
2017-Sep-12 22:26N 51°16' E 004°21'0 0.0
2017-Sep-12 21:59N 51°16' E 004°21'0 0.0
2017-Sep-12 21:23N 51°16' E 004°21'0 0.0
2017-Sep-12 20:56N 51°16' E 004°21'0 0.0
2017-Sep-12 20:26N 51°16' E 004°21'0 0.0
2017-Sep-12 19:59N 51°16' E 004°21'0 0.0
2017-Sep-12 19:26N 51°16' E 004°21'0 0.0
2017-Sep-12 18:59N 51°16' E 004°21'0 0.0
2017-Sep-12 18:29N 51°16' E 004°21'0 0.0
2017-Sep-12 17:59N 51°16' E 004°21'0 0.0
2017-Sep-12 17:29N 51°16' E 004°21'0 0.0
2017-Sep-12 16:56N 51°16' E 004°21'0 0.0
2017-Sep-12 16:23N 51°16' E 004°21'0 0.0
2017-Sep-12 15:59N 51°16' E 004°21'0 0.0
2017-Sep-12 15:26N 51°16' E 004°21'0 0.0
2017-Sep-12 14:59N 51°16' E 004°21'0 0.0
2017-Sep-12 14:26N 51°16' E 004°21'0 0.0
2017-Sep-12 13:56N 51°16' E 004°21'0 0.0
2017-Sep-12 13:29N 51°16' E 004°21'0 0.0
2017-Sep-12 12:59N 51°16' E 004°21'0 0.0
2017-Sep-12 12:29N 51°16' E 004°21'0 0.0
2017-Sep-12 11:59N 51°16' E 004°21'0 0.0
2017-Sep-12 11:26N 51°16' E 004°21'0 0.0
2017-Sep-12 10:56N 51°16' E 004°21'0 0.0
2017-Sep-12 10:26N 51°16' E 004°21'0 0.0
2017-Sep-12 09:56N 51°16' E 004°21'0 0.0
2017-Sep-12 09:26N 51°16' E 004°21'0 0.0
2017-Sep-12 08:56N 51°16' E 004°21'0 0.0
2017-Sep-12 08:26N 51°16' E 004°21'0 0.0
2017-Sep-12 07:59N 51°16' E 004°21'0 0.0
2017-Sep-12 07:29N 51°16' E 004°21'0 0.0
2017-Sep-12 06:53N 51°16' E 004°21'0 0.0
2017-Sep-12 06:23N 51°16' E 004°21'0 0.0
2017-Sep-12 05:56N 51°16' E 004°21'0 0.0
2017-Sep-12 05:29N 51°16' E 004°21'0 0.0
2017-Sep-12 04:44N 51°16' E 004°21'0 0.0
2017-Sep-12 04:29N 51°16' E 004°21'0 0.0
2017-Sep-12 03:59N 51°16' E 004°21'0 0.0
2017-Sep-12 03:26N 51°16' E 004°21'0 0.0
2017-Sep-12 02:50N 51°16' E 004°21'0 0.0
2017-Sep-12 02:23N 51°16' E 004°21'0 0.0
2017-Sep-12 01:59N 51°16' E 004°21'0 0.0
2017-Sep-12 01:23N 51°16' E 004°21'0 0.0
2017-Sep-12 00:59N 51°16' E 004°21'0 0.0
2017-Sep-12 00:29N 51°16' E 004°21'0 0.0
2017-Sep-11 23:53N 51°16' E 004°21'0 0.0
2017-Sep-11 23:29N 51°16' E 004°21'0 0.0
2017-Sep-11 22:53N 51°16' E 004°21'0 0.0
2017-Sep-11 22:17N 51°16' E 004°21'0 0.0
2017-Sep-11 21:59N 51°16' E 004°21'0 0.0
2017-Sep-11 21:26N 51°16' E 004°21'0 0.0
2017-Sep-11 20:47N 51°16' E 004°21'0 0.0
2017-Sep-11 20:23N 51°16' E 004°21'0 0.0
2017-Sep-11 19:59N 51°16' E 004°21'0 0.0
2017-Sep-11 19:29N 51°16' E 004°21'0 0.0
2017-Sep-11 18:53N 51°16' E 004°21'0 0.0
2017-Sep-11 18:29N 51°16' E 004°21'0 0.0
2017-Sep-11 17:53N 51°16' E 004°21'0 0.0
2017-Sep-11 17:23N 51°16' E 004°21'0 0.0
2017-Sep-11 16:53N 51°16' E 004°21'0 0.0
2017-Sep-11 16:20N 51°16' E 004°21'0 0.0
2017-Sep-11 15:59N 51°16' E 004°21'0 0.0
2017-Sep-11 15:29N 51°16' E 004°21'0 0.0
2017-Sep-11 14:53N 51°16' E 004°21'0 0.0
2017-Sep-11 14:26N 51°16' E 004°21'0 0.0
2017-Sep-11 13:56N 51°16' E 004°21'0 0.0
2017-Sep-11 13:26N 51°16' E 004°21'0 0.0
2017-Sep-11 12:59N 51°16' E 004°21'0 0.0
2017-Sep-11 12:26N 51°16' E 004°21'0 0.0
2017-Sep-11 11:59N 51°16' E 004°21'0 0.0
2017-Sep-11 11:26N 51°16' E 004°21'0 0.0
2017-Sep-11 10:59N 51°16' E 004°21'0 0.0
2017-Sep-11 10:26N 51°16' E 004°21'0 0.0
2017-Sep-11 09:59N 51°16' E 004°21'0 0.0
2017-Sep-11 09:26N 51°16' E 004°21'0 0.0
2017-Sep-11 08:53N 51°16' E 004°21'0 0.0
2017-Sep-11 08:29N 51°16' E 004°21'0 0.0
2017-Sep-11 07:56N 51°16' E 004°21'0 0.0
2017-Sep-11 07:29N 51°16' E 004°21'0 0.0
2017-Sep-11 06:59N 51°16' E 004°21'0 0.0
2017-Sep-11 06:29N 51°16' E 004°21'0 0.0
2017-Sep-11 05:59N 51°16' E 004°21'0 0.0
2017-Sep-11 05:29N 51°16' E 004°21'0 0.0
2017-Sep-11 04:59N 51°16' E 004°21'0 0.0
2017-Sep-11 04:26N 51°16' E 004°21'0 0.0
2017-Sep-11 03:56N 51°16' E 004°21'0 0.0
2017-Sep-11 03:29N 51°16' E 004°21'0 0.0
2017-Sep-11 02:59N 51°16' E 004°21'0 0.0
2017-Sep-11 02:26N 51°16' E 004°21'0 0.0
2017-Sep-11 01:56N 51°16' E 004°21'0 0.0
2017-Sep-11 01:29N 51°16' E 004°21'0 0.0
2017-Sep-11 00:56N 51°16' E 004°21'0 0.0
2017-Sep-11 00:26N 51°16' E 004°21'0 0.0
2017-Sep-10 23:56N 51°16' E 004°21'0 0.0
2017-Sep-10 23:29N 51°16' E 004°21'0 0.0
2017-Sep-10 22:59N 51°16' E 004°21'0 0.0
2017-Sep-10 22:26N 51°16' E 004°21'0 0.0
2017-Sep-10 21:56N 51°16' E 004°21'0 0.0
2017-Sep-10 21:26N 51°16' E 004°21'0 0.0
2017-Sep-10 20:56N 51°16' E 004°21'0 0.0
2017-Sep-10 20:26N 51°16' E 004°21'0 0.0
2017-Sep-10 19:56N 51°16' E 004°21'0 0.0
2017-Sep-10 19:26N 51°16' E 004°21'0 0.0
2017-Sep-10 18:59N 51°16' E 004°21'0 0.0
2017-Sep-10 18:26N 51°16' E 004°21'0 0.0
2017-Sep-10 17:56N 51°16' E 004°21'0 0.0
2017-Sep-10 17:29N 51°16' E 004°21'0 0.0
2017-Sep-10 16:53N 51°16' E 004°21'0 0.0
2017-Sep-10 16:29N 51°16' E 004°21'0 0.0
2017-Sep-10 15:41N 51°16' E 004°21'0 0.0
2017-Sep-10 15:26N 51°16' E 004°21'0 0.0
2017-Sep-10 14:56N 51°16' E 004°21'  

Dump ship's entire track history